Time;durP1;ratioP1;P1;durP2;ratioP2;P2;SDS_P1;SDS_P2;PMS_P1;PMS_P2;Temp;Humidity;BMP_temperature;BMP_pressure;BME280_temperature;BME280_humidity;BME280_pressure;Samples;Min_cycle;Max_cycle;Signal;HPM_P1;HPM_P2
2022/08/19 00:01:57;;;;;;;73.97;16.53;;;21.30;97.30;;;;;;5062175;28;20175;-81
2022/08/19 00:04:32;;;;;;;79.50;16.23;;;21.20;96.90;;;;;;5080407;28;20221;-81
2022/08/19 00:06:59;;;;;;;73.07;14.83;;;21.20;97.20;;;;;;5061614;28;20468;-81
2022/08/19 00:09:25;;;;;;;77.03;15.60;;;21.20;97.30;;;;;;5060863;28;20413;-81
2022/08/19 00:11:55;;;;;;;75.07;16.83;;;21.20;97.30;;;;;;5079031;28;20402;-81
2022/08/19 00:14:22;;;;;;;75.57;16.00;;;21.20;97.60;;;;;;5079732;28;20407;-81
2022/08/19 00:16:48;;;;;;;74.87;15.90;;;21.20;98.90;;;;;;5079410;28;20452;-81
2022/08/19 00:19:15;;;;;;;73.30;15.27;;;21.20;98.60;;;;;;5079862;28;20410;-81
2022/08/19 00:21:41;;;;;;;74.87;15.10;;;21.20;98.20;;;;;;5079971;28;20406;-81
2022/08/19 00:24:13;;;;;;;75.30;15.73;;;21.10;98.90;;;;;;5062072;28;20414;-81
2022/08/19 00:26:39;;;;;;;76.30;16.07;;;21.10;99.40;;;;;;5079545;28;20454;-81
2022/08/19 00:29:07;;;;;;;74.83;16.57;;;21.10;99.10;;;;;;5079546;28;20402;-80
2022/08/19 00:31:33;;;;;;;72.80;15.60;;;21.10;99.30;;;;;;5078721;28;20422;-81
2022/08/19 00:33:58;;;;;;;72.87;16.20;;;21.10;99.10;;;;;;5061316;28;20421;-81
2022/08/19 00:36:24;;;;;;;75.07;15.53;;;21.10;99.70;;;;;;5079606;28;20192;-81
2022/08/19 00:38:51;;;;;;;78.07;18.30;;;21.10;99.90;;;;;;5079017;28;20410;-80
2022/08/19 00:41:21;;;;;;;77.90;16.83;;;21.00;99.90;;;;;;5060797;28;20542;-81
2022/08/19 00:44:05;;;;;;;75.33;15.77;;;21.00;99.90;;;;;;5061041;28;20419;-81
2022/08/19 00:46:33;;;;;;;78.27;14.90;;;21.00;99.90;;;;;;5078356;28;20473;-81
2022/08/19 00:49:00;;;;;;;77.30;14.90;;;21.00;99.90;;;;;;5079080;28;20833;-81
2022/08/19 00:51:30;;;;;;;77.07;16.23;;;21.00;99.90;;;;;;5078566;28;20746;-81
2022/08/19 00:53:58;;;;;;;76.07;15.43;;;21.00;99.90;;;;;;5061236;28;20441;-81
2022/08/19 00:56:26;;;;;;;75.10;16.17;;;20.90;99.90;;;;;;5078909;28;20434;-81
2022/08/19 00:58:53;;;;;;;76.77;16.00;;;20.90;99.90;;;;;;5079340;28;20488;-81
2022/08/19 01:01:19;;;;;;;75.00;16.03;;;20.90;99.90;;;;;;5078599;28;20409;-81
2022/08/19 01:03:45;;;;;;;77.97;15.60;;;20.90;99.90;;;;;;5078393;28;20413;-81
2022/08/19 01:06:10;;;;;;;76.87;15.43;;;20.90;99.90;;;;;;5078597;28;20253;-81
2022/08/19 01:08:36;;;;;;;76.40;16.13;;;20.90;99.90;;;;;;5078466;28;20183;-81
2022/08/19 01:11:03;;;;;;;76.13;16.37;;;20.90;99.90;;;;;;5078901;28;20271;-81
2022/08/19 01:13:32;;;;;;;75.40;16.63;;;20.90;99.90;;;;;;5078682;28;20417;-81
2022/08/19 01:16:07;;;;;;;81.63;15.83;;;20.80;99.90;;;;;;5078528;28;20464;-81
2022/08/19 01:18:39;;;;;;;75.10;14.43;;;20.80;99.90;;;;;;5078784;28;20810;-81
2022/08/19 01:21:34;;;;;;;82.13;14.83;;;20.70;99.90;;;;;;5077333;28;20397;-81
2022/08/19 01:24:00;;;;;;;76.10;15.97;;;20.70;99.90;;;;;;5078494;28;20435;-81
2022/08/19 01:26:27;;;;;;;76.70;16.43;;;20.70;99.90;;;;;;5060426;28;20485;-81
2022/08/19 01:28:56;;;;;;;73.97;16.37;;;20.70;99.90;;;;;;5078040;28;20402;-81
2022/08/19 01:31:30;;;;;;;76.30;15.83;;;20.70;99.90;;;;;;5078989;28;20474;-81
2022/08/19 01:33:57;;;;;;;78.37;15.70;;;20.70;99.90;;;;;;5060567;28;20411;-81
2022/08/19 01:36:34;;;;;;;75.83;15.77;;;20.70;99.90;;;;;;5078681;28;20426;-81
2022/08/19 01:39:03;;;;;;;74.77;15.30;;;20.60;99.90;;;;;;5078553;28;20489;-81
2022/08/19 01:41:28;;;;;;;75.80;16.17;;;20.60;99.90;;;;;;5075600;28;20415;-81
2022/08/19 01:43:55;;;;;;;79.70;19.07;;;20.50;99.90;;;;;;5059708;28;20433;-80
2022/08/19 01:46:22;;;;;;;75.97;18.97;;;20.50;99.90;;;;;;5059979;28;20215;-81
2022/08/19 01:48:47;;;;;;;77.00;17.37;;;20.40;99.90;;;;;;5078556;28;20408;-81
2022/08/19 01:51:14;;;;;;;76.07;17.30;;;20.40;99.90;;;;;;5060398;28;20778;-81
2022/08/19 01:53:41;;;;;;;82.63;18.97;;;20.50;99.90;;;;;;5078499;28;20159;-80
2022/08/19 01:56:07;;;;;;;82.57;16.47;;;20.50;99.90;;;;;;5075914;28;20527;-81
2022/08/19 01:58:39;;;;;;;85.90;16.70;;;20.50;99.90;;;;;;5076043;28;20488;-81
2022/08/19 02:01:06;;;;;;;73.93;15.60;;;20.50;99.90;;;;;;5078583;28;20407;-81
2022/08/19 02:03:32;;;;;;;78.93;17.60;;;20.50;99.90;;;;;;5078396;28;20812;-82
2022/08/19 02:06:00;;;;;;;86.07;17.40;;;20.40;99.90;;;;;;5077194;28;20446;-81
2022/08/19 02:08:30;;;;;;;79.17;18.77;;;20.40;99.90;;;;;;5077718;28;20167;-80
2022/08/19 02:10:56;;;;;;;75.40;17.20;;;20.40;99.90;;;;;;5057935;28;20418;-81
2022/08/19 02:13:23;;;;;;;77.70;17.53;;;20.40;99.90;;;;;;5078548;28;20407;-81
2022/08/19 02:15:49;;;;;;;77.60;16.50;;;20.30;99.90;;;;;;5078047;28;20500;-81
2022/08/19 02:18:14;;;;;;;78.77;20.27;;;20.30;99.90;;;;;;5077834;28;20441;-81
2022/08/19 02:20:43;;;;;;;75.90;17.57;;;20.30;99.90;;;;;;5077614;28;20427;-81
2022/08/19 02:23:10;;;;;;;75.10;17.40;;;20.30;99.90;;;;;;5078794;28;20184;-81
2022/08/19 02:25:36;;;;;;;81.23;19.07;;;20.30;99.90;;;;;;5077550;28;20413;-81
2022/08/19 02:28:02;;;;;;;79.10;19.30;;;20.30;99.90;;;;;;5059730;28;20433;-81
2022/08/19 02:30:28;;;;;;;75.77;17.20;;;20.20;99.90;;;;;;5075483;28;20191;-81
2022/08/19 02:32:54;;;;;;;77.60;18.97;;;20.20;99.90;;;;;;5078318;28;20408;-81
2022/08/19 02:35:20;;;;;;;77.63;20.17;;;20.20;99.90;;;;;;5079892;28;20426;-81
2022/08/19 02:40:34;;;;;;;79.07;18.80;;;20.10;99.90;;;;;;5080081;28;20393;-81
2022/08/19 02:43:02;;;;;;;77.00;19.93;;;20.10;99.90;;;;;;5079485;28;20959;-81
2022/08/19 02:45:32;;;;;;;77.30;20.27;;;20.10;99.90;;;;;;5079263;28;20498;-81
2022/08/19 02:47:58;;;;;;;78.60;19.27;;;20.00;99.90;;;;;;5061706;28;20444;-81
2022/08/19 02:50:24;;;;;;;77.27;20.60;;;20.00;99.90;;;;;;5079668;28;20398;-81
2022/08/19 02:52:50;;;;;;;79.57;22.03;;;20.00;99.90;;;;;;5079368;28;20555;-81
2022/08/19 02:55:15;;;;;;;83.80;20.83;;;20.00;99.90;;;;;;5079032;28;20584;-81
2022/08/19 02:57:41;;;;;;;78.00;20.87;;;20.10;99.90;;;;;;5078779;28;20246;-81
2022/08/19 03:00:12;;;;;;;76.13;19.87;;;20.00;99.90;;;;;;5079298;28;20172;-81
2022/08/19 03:02:38;;;;;;;78.27;20.23;;;20.00;99.90;;;;;;5081693;28;20395;-80
2022/08/19 03:05:05;;;;;;;77.17;18.57;;;20.10;99.90;;;;;;5081288;28;20429;-81
2022/08/19 03:07:30;;;;;;;78.23;19.53;;;20.00;99.90;;;;;;5081132;28;20477;-81
2022/08/19 03:09:56;;;;;;;76.90;18.80;;;20.00;99.90;;;;;;5081198;28;20889;-81
2022/08/19 03:12:22;;;;;;;77.07;20.20;;;20.00;99.90;;;;;;5064350;28;20219;-80
2022/08/19 03:14:48;;;;;;;80.37;18.37;;;20.00;99.90;;;;;;5081095;28;20623;-80
2022/08/19 03:17:14;;;;;;;79.50;19.00;;;20.00;99.90;;;;;;5081258;28;20194;-81
2022/08/19 03:19:39;;;;;;;80.07;18.87;;;19.90;99.90;;;;;;5062933;28;20265;-81
2022/08/19 03:22:05;;;;;;;79.50;18.60;;;19.90;99.90;;;;;;5080157;28;20409;-81
2022/08/19 03:24:31;;;;;;;76.07;17.17;;;19.90;99.90;;;;;;5062858;28;20316;-81
2022/08/19 03:26:58;;;;;;;77.00;16.73;;;19.90;99.90;;;;;;5080815;28;20484;-81
2022/08/19 03:29:26;;;;;;;79.37;18.83;;;19.90;99.90;;;;;;5080295;28;20819;-81
2022/08/19 03:31:52;;;;;;;77.17;18.33;;;19.90;99.90;;;;;;5062821;28;20444;-81
2022/08/19 03:34:26;;;;;;;80.33;18.80;;;19.90;99.90;;;;;;5062982;28;20407;-81
2022/08/19 03:36:54;;;;;;;81.93;19.80;;;19.90;99.90;;;;;;5081212;28;20424;-81
2022/08/19 03:39:21;;;;;;;76.80;18.30;;;19.90;99.90;;;;;;5080640;28;20403;-81
2022/08/19 03:41:49;;;;;;;77.17;17.03;;;19.90;99.90;;;;;;5080965;28;20401;-81
2022/08/19 03:44:20;;;;;;;79.87;17.73;;;19.90;99.90;;;;;;5080239;28;20405;-81
2022/08/19 03:46:48;;;;;;;77.40;18.23;;;19.80;99.90;;;;;;5080261;28;20454;-80
2022/08/19 03:49:14;;;;;;;79.43;16.67;;;19.70;99.90;;;;;;5080451;28;20478;-81
2022/08/19 03:51:41;;;;;;;78.37;17.30;;;19.80;99.90;;;;;;5081621;28;20408;-81
2022/08/19 03:54:09;;;;;;;79.30;17.37;;;19.80;99.90;;;;;;5081042;28;20487;-81
2022/08/19 03:56:36;;;;;;;79.37;16.40;;;19.80;99.90;;;;;;5080480;28;20430;-81
2022/08/19 03:59:04;;;;;;;83.23;17.97;;;19.80;99.90;;;;;;5080732;28;20411;-81
2022/08/19 04:01:29;;;;;;;86.17;21.30;;;19.70;99.90;;;;;;5080550;28;20820;-81
2022/08/19 04:03:57;;;;;;;82.53;18.27;;;19.70;99.90;;;;;;5080989;28;20419;-81
2022/08/19 04:06:28;;;;;;;79.20;18.30;;;19.70;99.90;;;;;;5062058;28;20228;-80
2022/08/19 04:08:55;;;;;;;80.57;19.20;;;19.70;99.90;;;;;;5062287;28;20412;-81
2022/08/19 04:11:27;;;;;;;81.07;18.50;;;19.70;99.90;;;;;;5080700;28;20406;-82
2022/08/19 04:13:53;;;;;;;79.07;16.80;;;19.70;99.90;;;;;;5080415;28;20799;-81
2022/08/19 04:16:21;;;;;;;84.13;19.23;;;19.70;99.90;;;;;;5079904;28;20460;-81
2022/08/19 04:18:48;;;;;;;84.77;17.67;;;19.60;99.90;;;;;;5062554;28;20416;-81
2022/08/19 04:21:20;;;;;;;80.33;18.30;;;19.70;99.90;;;;;;5080180;28;20428;-81
2022/08/19 04:23:47;;;;;;;89.60;18.77;;;19.70;99.90;;;;;;5080010;28;20409;-81
2022/08/19 04:26:19;;;;;;;80.67;18.73;;;19.70;99.90;;;;;;5062457;28;20460;-81
2022/08/19 04:28:45;;;;;;;82.80;20.13;;;19.70;99.90;;;;;;5080380;28;20384;-81
2022/08/19 04:31:16;;;;;;;79.27;19.60;;;19.70;99.90;;;;;;5080537;28;20423;-79
2022/08/19 04:33:42;;;;;;;79.17;17.53;;;19.70;99.90;;;;;;5062444;28;20418;-81
2022/08/19 04:36:23;;;;;;;85.13;18.70;;;19.70;99.90;;;;;;5061695;28;20430;-81
2022/08/19 04:38:52;;;;;;;80.80;19.07;;;19.70;99.90;;;;;;5080276;28;20862;-81
2022/08/19 04:44:02;;;;;;;82.10;18.20;;;19.70;99.90;;;;;;5080023;28;20393;-81
2022/08/19 04:46:31;;;;;;;88.63;20.37;;;19.70;99.90;;;;;;5079769;28;20444;-81
2022/08/19 04:49:02;;;;;;;80.67;18.80;;;19.70;99.90;;;;;;5080357;28;20398;-81
2022/08/19 04:51:30;;;;;;;84.50;18.77;;;19.70;99.90;;;;;;5080061;28;20439;-81
2022/08/19 04:53:57;;;;;;;82.10;19.30;;;19.70;99.90;;;;;;5061462;28;20403;-81
2022/08/19 04:56:26;;;;;;;80.90;19.27;;;19.70;99.90;;;;;;5080100;28;20916;-81
2022/08/19 04:58:52;;;;;;;83.33;20.80;;;19.70;99.90;;;;;;5080111;28;20407;-80
2022/08/19 05:01:22;;;;;;;82.07;21.80;;;19.70;99.90;;;;;;5079552;28;20394;-81
2022/08/19 05:03:49;;;;;;;83.67;21.93;;;19.70;99.90;;;;;;5062467;28;20774;-81
2022/08/19 05:06:16;;;;;;;83.50;23.00;;;19.70;99.90;;;;;;5061630;28;20998;-81
2022/08/19 05:08:43;;;;;;;87.60;26.23;;;19.70;99.90;;;;;;5078817;28;20478;-81
2022/08/19 05:11:14;;;;;;;86.80;24.03;;;19.70;99.90;;;;;;5061306;28;20411;-81
2022/08/19 05:13:40;;;;;;;87.57;24.57;;;19.70;99.90;;;;;;5079312;28;20398;-81
2022/08/19 05:16:06;;;;;;;86.67;24.83;;;19.80;99.90;;;;;;5079368;28;20509;-81
2022/08/19 05:24:08;;;;;;;92.93;28.50;;;19.90;99.90;;;;;;5080012;28;20439;-81
2022/08/19 05:26:42;;;;;;;91.67;31.33;;;19.90;99.90;;;;;;5061474;28;20462;-80
2022/08/19 05:29:09;;;;;;;94.10;30.67;;;19.90;99.90;;;;;;5079488;28;20737;-81
2022/08/19 05:31:36;;;;;;;90.60;30.50;;;19.90;99.90;;;;;;5061113;28;20917;-82
2022/08/19 05:34:04;;;;;;;101.70;29.03;;;20.00;99.90;;;;;;5078049;28;20417;-81
2022/08/19 05:36:35;;;;;;;97.50;29.40;;;19.90;99.90;;;;;;5059376;28;20441;-81
2022/08/19 05:39:02;;;;;;;96.00;31.03;;;19.90;99.90;;;;;;5080388;28;20403;-82
2022/08/19 05:41:29;;;;;;;90.77;29.13;;;20.00;99.90;;;;;;5081352;28;20386;-82
2022/08/19 05:43:55;;;;;;;94.87;30.17;;;19.90;99.90;;;;;;5062914;28;20402;-82
2022/08/19 05:46:22;;;;;;;98.53;28.17;;;19.90;99.90;;;;;;5081024;28;20463;-82
2022/08/19 05:48:48;;;;;;;89.10;27.10;;;20.00;99.90;;;;;;5080501;28;20403;-82
2022/08/19 05:51:14;;;;;;;100.30;31.73;;;20.00;99.90;;;;;;5080262;28;20911;-82
2022/08/19 05:53:40;;;;;;;95.10;30.00;;;20.00;99.90;;;;;;5079691;28;20500;-83
2022/08/19 05:56:08;;;;;;;94.90;32.53;;;20.00;99.90;;;;;;5078950;28;20495;-82
2022/08/19 05:58:36;;;;;;;90.70;27.33;;;20.00;99.90;;;;;;5078563;28;20227;-82
2022/08/19 06:01:05;;;;;;;91.70;29.30;;;20.10;99.90;;;;;;5078261;28;20426;-82
2022/08/19 06:03:34;;;;;;;100.80;32.10;;;20.10;99.90;;;;;;5077461;28;20505;-82
2022/08/19 06:06:00;;;;;;;94.70;31.13;;;20.00;99.90;;;;;;5077157;28;20790;-82
2022/08/19 06:08:27;;;;;;;93.13;29.63;;;20.00;99.90;;;;;;5061155;28;20441;-85
2022/08/19 06:10:53;;;;;;;91.37;27.07;;;20.10;99.90;;;;;;5082825;28;20395;-85
2022/08/19 06:13:19;;;;;;;100.03;32.97;;;20.20;99.90;;;;;;5083256;28;20411;-85
2022/08/19 06:15:46;;;;;;;99.37;30.37;;;20.20;99.90;;;;;;5082290;28;20439;-85
2022/08/19 06:18:13;;;;;;;98.80;30.13;;;20.20;99.90;;;;;;5081733;28;20405;-84
2022/08/19 06:20:40;;;;;;;99.37;34.73;;;20.40;99.90;;;;;;5083493;28;20404;-84
2022/08/19 06:23:05;;;;;;;100.07;37.20;;;20.30;99.90;;;;;;5082628;28;20477;-85
2022/08/19 06:25:31;;;;;;;99.17;35.23;;;20.30;99.90;;;;;;5065637;28;20420;-84
2022/08/19 06:27:57;;;;;;;104.50;39.13;;;20.40;99.90;;;;;;5082746;28;20216;-83
2022/08/19 06:30:23;;;;;;;105.23;38.20;;;20.50;99.90;;;;;;5067133;28;20191;-83
2022/08/19 06:32:49;;;;;;;100.63;36.77;;;20.60;99.90;;;;;;5082035;28;20180;-83
2022/08/19 06:35:16;;;;;;;100.20;38.57;;;20.60;99.90;;;;;;5064149;28;20419;-83
2022/08/19 06:37:42;;;;;;;102.40;35.87;;;20.60;99.90;;;;;;5082710;28;20188;-83
2022/08/19 06:40:10;;;;;;;104.37;41.30;;;20.70;99.90;;;;;;5062665;28;20418;-83
2022/08/19 06:42:38;;;;;;;105.27;39.77;;;20.70;99.90;;;;;;5063431;28;20483;-83
2022/08/19 06:45:08;;;;;;;107.73;43.07;;;20.80;99.90;;;;;;5063088;28;20465;-81
2022/08/19 06:47:34;;;;;;;103.00;39.10;;;20.80;99.90;;;;;;5079218;28;20449;-83
2022/08/19 06:50:02;;;;;;;107.90;42.67;;;20.80;99.90;;;;;;5064694;28;20453;-83
2022/08/19 06:52:30;;;;;;;106.77;40.20;;;20.80;99.90;;;;;;5081884;28;20401;-83
2022/08/19 06:54:56;;;;;;;109.10;42.37;;;20.80;99.90;;;;;;5082285;28;20404;-83
2022/08/19 06:57:25;;;;;;;106.40;37.63;;;20.80;99.90;;;;;;5083211;28;20425;-83
2022/08/19 06:59:51;;;;;;;106.40;40.10;;;20.80;99.90;;;;;;5084948;28;20417;-84
2022/08/19 07:02:17;;;;;;;101.63;38.97;;;20.90;99.90;;;;;;5083529;28;20417;-83
2022/08/19 07:04:43;;;;;;;105.33;39.67;;;20.90;99.90;;;;;;5064835;28;20407;-83
2022/08/19 07:07:13;;;;;;;102.37;37.63;;;20.90;99.90;;;;;;5082928;28;21019;-83
2022/08/19 07:09:42;;;;;;;106.47;40.57;;;21.00;99.90;;;;;;5065650;28;20162;-83
2022/08/19 07:12:10;;;;;;;103.83;42.57;;;21.00;99.90;;;;;;5063735;28;20404;-83
2022/08/19 07:14:37;;;;;;;113.50;42.23;;;21.00;99.90;;;;;;5082062;28;20925;-83
2022/08/19 07:17:05;;;;;;;105.50;39.57;;;21.00;99.90;;;;;;5083286;28;20492;-83
2022/08/19 07:19:31;;;;;;;106.50;38.80;;;21.00;99.90;;;;;;5085636;28;20503;-82
2022/08/19 07:21:57;;;;;;;108.37;39.20;;;21.00;99.90;;;;;;5086022;28;20402;-83
2022/08/19 07:24:24;;;;;;;106.60;41.17;;;21.00;99.90;;;;;;5087046;28;20492;-83
2022/08/19 07:26:52;;;;;;;110.50;42.60;;;21.00;99.90;;;;;;5086598;28;20440;-83
2022/08/19 07:29:18;;;;;;;112.77;45.40;;;21.00;99.90;;;;;;5087973;28;20470;-83
2022/08/19 07:31:44;;;;;;;109.07;42.13;;;21.10;99.90;;;;;;5068916;28;20793;-83
2022/08/19 07:34:13;;;;;;;107.70;44.27;;;21.10;99.90;;;;;;5087025;28;20416;-83
2022/08/19 07:36:41;;;;;;;110.57;43.80;;;21.00;99.90;;;;;;5085464;28;20180;-83
2022/08/19 07:39:11;;;;;;;110.13;42.47;;;21.00;99.90;;;;;;5066712;28;20781;-83
2022/08/19 07:41:39;;;;;;;113.27;48.00;;;21.10;99.90;;;;;;5085403;28;20399;-83
2022/08/19 07:44:07;;;;;;;106.63;39.60;;;21.10;99.90;;;;;;5085040;28;20407;-83
2022/08/19 07:46:39;;;;;;;110.37;46.03;;;21.20;99.90;;;;;;5086054;28;20447;-83
2022/08/19 07:49:06;;;;;;;115.50;43.17;;;21.20;99.90;;;;;;5085918;28;20401;-83
2022/08/19 07:51:32;;;;;;;111.80;45.70;;;21.20;99.90;;;;;;5087367;28;20415;-83
2022/08/19 07:53:59;;;;;;;117.50;46.13;;;21.30;99.90;;;;;;5070077;28;20478;-83
2022/08/19 07:56:25;;;;;;;111.20;47.00;;;21.30;99.90;;;;;;5068049;28;20480;-83
2022/08/19 07:58:52;;;;;;;111.10;42.47;;;21.30;99.90;;;;;;5068566;28;20425;-83
2022/08/19 08:01:22;;;;;;;115.90;43.77;;;21.40;99.90;;;;;;5086904;28;20391;-83
2022/08/19 08:09:32;;;;;;;109.07;39.80;;;21.40;99.90;;;;;;5086275;28;20392;-83
2022/08/19 08:12:07;;;;;;;109.53;40.90;;;21.50;99.90;;;;;;5068569;28;20916;-83
2022/08/19 08:14:37;;;;;;;107.40;36.53;;;21.60;99.90;;;;;;5085528;28;20385;-83
2022/08/19 08:17:05;;;;;;;112.77;38.30;;;21.70;99.90;;;;;;5068402;28;20510;-83
2022/08/19 08:19:31;;;;;;;114.10;36.17;;;21.80;99.90;;;;;;5085965;28;20910;-83
2022/08/19 08:21:59;;;;;;;107.73;34.17;;;21.80;99.90;;;;;;5086361;28;20403;-83
2022/08/19 08:24:27;;;;;;;111.33;35.07;;;21.90;99.90;;;;;;5068458;28;20413;-83
2022/08/19 08:26:53;;;;;;;110.73;33.60;;;21.90;99.90;;;;;;5086056;28;20452;-83
2022/08/19 08:29:19;;;;;;;113.90;35.10;;;21.90;99.90;;;;;;5086238;28;20431;-83
2022/08/19 08:31:46;;;;;;;114.90;34.80;;;22.00;99.90;;;;;;5086426;28;20467;-83
2022/08/19 08:34:13;;;;;;;108.80;34.43;;;22.10;99.90;;;;;;5067278;28;20418;-83
2022/08/19 08:36:41;;;;;;;109.27;33.77;;;22.10;99.90;;;;;;5084790;28;20430;-83
2022/08/19 08:39:13;;;;;;;114.67;32.93;;;22.20;99.90;;;;;;5084974;28;20435;-84
2022/08/19 08:42:03;;;;;;;116.00;31.50;;;22.30;99.90;;;;;;5085241;28;20436;-83
2022/08/19 08:44:43;;;;;;;111.67;31.77;;;22.30;99.90;;;;;;5085340;28;20387;-83
2022/08/19 08:47:16;;;;;;;110.93;31.00;;;22.50;99.90;;;;;;5086001;28;20961;-83
2022/08/19 08:49:59;;;;;;;118.03;34.60;;;22.50;99.90;;;;;;5068242;28;20419;-83
2022/08/19 08:52:35;;;;;;;113.87;31.07;;;22.60;99.90;;;;;;5068241;28;20488;-84
2022/08/19 08:55:10;;;;;;;109.80;29.80;;;22.80;99.90;;;;;;5085787;28;20383;-84
2022/08/19 08:57:48;;;;;;;107.13;29.43;;;22.90;99.90;;;;;;5085884;28;20478;-84
2022/08/19 09:00:30;;;;;;;104.13;29.33;;;23.10;99.90;;;;;;5086218;28;20458;-83
2022/08/19 09:02:57;;;;;;;107.77;30.70;;;23.20;98.70;;;;;;5085116;28;20391;-84
2022/08/19 09:05:29;;;;;;;112.57;30.37;;;23.30;95.30;;;;;;5067228;28;20417;-83
2022/08/19 09:08:08;;;;;;;108.20;29.07;;;23.40;96.20;;;;;;5067624;28;20453;-84
2022/08/19 09:10:39;;;;;;;100.43;26.60;;;23.50;95.50;;;;;;5067341;28;20412;-83
2022/08/19 09:13:24;;;;;;;103.23;27.70;;;23.50;90.70;;;;;;5083551;28;20469;-83
2022/08/19 09:16:07;;;;;;;103.97;26.73;;;23.50;87.60;;;;;;5084066;28;20432;-83
2022/08/19 09:19:03;;;;;;;101.90;27.30;;;23.60;83.60;;;;;;5065595;28;20418;-84
2022/08/19 09:21:32;;;;;;;94.87;25.50;;;23.60;73.00;;;;;;5065501;28;20406;-82
2022/08/19 09:23:58;;;;;;;98.73;24.40;;;23.70;74.00;;;;;;5084116;28;20485;-83
2022/08/19 09:26:25;;;;;;;95.37;23.80;;;23.80;65.40;;;;;;5083243;28;20448;-83
2022/08/19 09:28:53;;;;;;;95.40;24.23;;;23.80;67.10;;;;;;5084446;28;20405;-83
2022/08/19 09:31:25;;;;;;;90.73;21.93;;;23.90;66.30;;;;;;5083987;28;20789;-83
2022/08/19 09:33:56;;;;;;;92.90;19.77;;;24.00;61.10;;;;;;5082651;28;20787;-83
2022/08/19 09:36:24;;;;;;;92.23;20.20;;;24.20;51.50;;;;;;5083138;28;20433;-83
2022/08/19 09:38:51;;;;;;;83.57;18.53;;;24.20;51.50;;;;;;5083784;28;20394;-83
2022/08/19 09:41:22;;;;;;;92.63;19.77;;;24.30;43.40;;;;;;5083606;28;20382;-83
2022/08/19 09:43:55;;;;;;;91.47;22.40;;;24.30;41.30;;;;;;5067870;28;20487;-83
2022/08/19 09:46:22;;;;;;;90.67;21.20;;;24.40;45.20;;;;;;5065392;28;20476;-83
2022/08/19 09:48:50;;;;;;;89.07;20.60;;;24.40;33.70;;;;;;5083850;28;20421;-83
2022/08/19 09:51:19;;;;;;;90.13;22.07;;;24.50;38.40;;;;;;5086409;28;20403;-83
2022/08/19 09:53:46;;;;;;;93.60;22.27;;;24.60;31.30;;;;;;5083804;28;20486;-83
2022/08/19 09:56:13;;;;;;;93.87;22.13;;;24.60;35.40;;;;;;5066324;28;20452;-83
2022/08/19 09:58:40;;;;;;;88.07;23.20;;;24.70;35.90;;;;;;5085259;28;20882;-83
2022/08/19 10:01:07;;;;;;;92.57;22.57;;;24.80;30.70;;;;;;5084095;28;20406;-83
2022/08/19 10:03:34;;;;;;;84.87;20.53;;;24.90;28.20;;;;;;5084274;28;20488;-83
2022/08/19 10:06:03;;;;;;;84.77;19.27;;;25.00;23.60;;;;;;5082214;28;20521;-83
2022/08/19 10:08:32;;;;;;;87.17;19.70;;;25.10;21.80;;;;;;5083217;28;20404;-83
2022/08/19 10:10:59;;;;;;;86.20;20.40;;;25.20;17.50;;;;;;5083406;28;20438;-83
2022/08/19 10:13:28;;;;;;;90.50;19.10;;;25.30;16.40;;;;;;5065289;28;20476;-83
2022/08/19 10:15:56;;;;;;;84.97;19.83;;;25.40;12.30;;;;;;5063945;28;20942;-83
2022/08/19 10:18:24;;;;;;;86.20;20.10;;;25.40;14.30;;;;;;5064574;28;20810;-83
2022/08/19 10:20:52;;;;;;;84.87;17.20;;;25.50;9.70;;;;;;5083442;28;20395;-82
2022/08/19 10:23:19;;;;;;;83.57;16.50;;;25.60;10.00;;;;;;5065157;28;20405;-83
2022/08/19 10:25:45;;;;;;;84.20;15.53;;;25.60;12.20;;;;;;5065627;28;20493;-82
2022/08/19 10:28:11;;;;;;;82.50;16.17;;;25.80;8.70;;;;;;5082056;28;20450;-83
2022/08/19 10:30:39;;;;;;;79.93;13.37;;;25.90;1.10;;;;;;5080977;28;20179;-83
2022/08/19 10:33:05;;;;;;;78.87;13.10;;;25.90;1.00;;;;;;5082733;28;20432;-83
2022/08/19 10:35:31;;;;;;;79.60;13.87;;;25.90;1.00;;;;;;5082759;28;20797;-83
2022/08/19 10:37:59;;;;;;;82.10;15.27;;;25.90;1.00;;;;;;5083367;28;20429;-84
2022/08/19 10:40:26;;;;;;;81.70;15.10;;;25.90;1.00;;;;;;5066076;28;20425;-84
2022/08/19 10:42:55;;;;;;;81.50;13.70;;;26.10;1.00;;;;;;5065930;28;20438;-84
2022/08/19 10:45:25;;;;;;;84.50;14.90;;;26.30;1.00;;;;;;5083127;28;20441;-84
2022/08/19 10:47:52;;;;;;;82.93;14.97;;;26.30;1.00;;;;;;5084112;28;20453;-83
2022/08/19 10:53:10;;;;;;;81.47;15.20;;;26.30;1.00;;;;;;5081612;28;20428;-83
2022/08/19 10:58:24;;;;;;;80.23;14.50;;;26.30;1.00;;;;;;5085005;28;20393;-83
2022/08/19 11:00:56;;;;;;;81.60;15.37;;;26.40;1.00;;;;;;5068356;28;20418;-83
2022/08/19 11:03:23;;;;;;;78.90;12.60;;;26.50;1.00;;;;;;5085638;28;20433;-84
2022/08/19 11:06:03;;;;;;;82.30;13.87;;;26.50;1.00;;;;;;5085075;28;20409;-84
2022/08/19 11:08:30;;;;;;;80.80;13.83;;;26.40;1.00;;;;;;5069692;28;20538;-84
2022/08/19 11:11:00;;;;;;;78.10;12.97;;;26.30;1.00;;;;;;5087216;28;20405;-84
2022/08/19 11:13:39;;;;;;;77.20;12.50;;;26.20;1.00;;;;;;5068785;28;20420;-84
2022/08/19 11:16:13;;;;;;;77.90;11.60;;;26.10;1.00;;;;;;5086519;28;20429;-84
2022/08/19 11:18:43;;;;;;;76.90;12.30;;;26.20;1.00;;;;;;5080669;28;20412;-82
2022/08/19 11:21:13;;;;;;;77.80;13.87;;;26.20;1.00;;;;;;5081139;28;20406;-82
2022/08/19 11:23:39;;;;;;;75.70;11.50;;;26.00;1.00;;;;;;5081893;28;20398;-82
2022/08/19 11:26:05;;;;;;;80.73;11.57;;;26.00;1.00;;;;;;5063325;28;21001;-81
2022/08/19 11:28:31;;;;;;;75.67;10.80;;;26.20;1.00;;;;;;5063368;28;20428;-83
2022/08/19 11:30:57;;;;;;;74.30;10.90;;;26.50;1.00;;;;;;5081866;28;20422;-82
2022/08/19 11:33:23;;;;;;;77.73;10.17;;;26.80;1.00;;;;;;5082019;28;20164;-83
2022/08/19 11:35:49;;;;;;;74.07;10.47;;;27.10;1.00;;;;;;5064350;28;20595;-82
2022/08/19 11:38:15;;;;;;;76.17;10.97;;;27.40;1.00;;;;;;5084243;28;20504;-83
2022/08/19 11:40:41;;;;;;;76.07;12.90;;;27.70;1.00;;;;;;5063891;28;20456;-82
2022/08/19 11:43:09;;;;;;;73.30;12.03;;;28.00;1.00;;;;;;5083025;28;20505;-83
2022/08/19 11:45:35;;;;;;;76.73;12.93;;;28.40;1.00;;;;;;5065004;28;20418;-83
2022/08/19 11:48:01;;;;;;;76.70;12.93;;;28.70;1.00;;;;;;5081899;28;20804;-83
2022/08/19 11:50:27;;;;;;;79.60;12.70;;;28.80;1.00;;;;;;5065048;28;20417;-82
2022/08/19 11:52:55;;;;;;;78.27;12.40;;;28.60;1.00;;;;;;5082458;28;20757;-83
2022/08/19 11:55:21;;;;;;;77.27;11.90;;;28.40;1.00;;;;;;5082636;28;20175;-83
2022/08/19 11:57:47;;;;;;;78.57;10.87;;;28.50;1.00;;;;;;5082010;28;20486;-82
2022/08/19 12:00:13;;;;;;;78.47;11.57;;;28.40;1.00;;;;;;5063297;28;20806;-82
2022/08/19 12:02:40;;;;;;;74.90;9.30;;;28.40;1.00;;;;;;5082976;28;20171;-82
2022/08/19 12:05:06;;;;;;;76.07;10.70;;;28.40;1.00;;;;;;5084096;28;20421;-82
2022/08/19 12:07:33;;;;;;;75.13;10.10;;;28.40;1.00;;;;;;5064928;28;20446;-82
2022/08/19 12:10:00;;;;;;;74.53;9.90;;;28.40;1.00;;;;;;5083715;28;20893;-82
2022/08/19 12:12:26;;;;;;;78.30;11.70;;;28.50;1.00;;;;;;5083438;28;20407;-83
2022/08/19 12:14:57;;;;;;;76.20;11.80;;;28.30;1.00;;;;;;5081460;28;20452;-82
2022/08/19 12:17:25;;;;;;;78.20;9.30;;;28.20;1.00;;;;;;5063134;28;20434;-83
2022/08/19 12:19:51;;;;;;;74.53;10.37;;;28.10;1.00;;;;;;5081509;28;20406;-82
2022/08/19 12:22:16;;;;;;;73.47;10.27;;;28.00;1.00;;;;;;5081586;28;20401;-81
2022/08/19 12:24:43;;;;;;;74.53;10.10;;;28.20;1.00;;;;;;5063995;28;20164;-82
2022/08/19 12:27:08;;;;;;;73.33;9.00;;;28.40;1.00;;;;;;5064311;28;20226;-81
2022/08/19 12:29:34;;;;;;;74.13;8.77;;;28.50;1.00;;;;;;5080183;28;20407;-81
2022/08/19 12:32:02;;;;;;;74.30;9.23;;;28.60;1.00;;;;;;5080300;28;20539;-81
2022/08/19 12:34:30;;;;;;;73.47;9.43;;;28.70;1.00;;;;;;5079648;28;20198;-81
2022/08/19 12:36:58;;;;;;;81.00;10.87;;;28.70;1.00;;;;;;5079902;28;20426;-81
2022/08/19 12:39:24;;;;;;;76.17;9.70;;;29.00;1.00;;;;;;5079706;28;20445;-81
2022/08/19 12:41:50;;;;;;;75.13;10.50;;;29.20;1.00;;;;;;5080460;28;20410;-81
2022/08/19 12:44:16;;;;;;;79.20;13.47;;;29.40;1.00;;;;;;5078655;28;20399;-81
2022/08/19 12:46:42;;;;;;;80.10;12.77;;;29.10;1.00;;;;;;5078313;28;20809;-81
2022/08/19 12:49:07;;;;;;;80.57;13.27;;;28.60;1.00;;;;;;5080097;28;20402;-81
2022/08/19 12:51:33;;;;;;;75.47;11.37;;;28.00;1.00;;;;;;5078981;28;20165;-81
2022/08/19 12:53:59;;;;;;;76.37;11.10;;;27.60;1.00;;;;;;5079854;28;20164;-81